createdAt,value
2018-01-05T00:00:06.846Z,7.92
2018-01-05T00:01:15.676Z,7.95
2018-01-05T00:02:24.505Z,7.87
2018-01-05T00:03:33.333Z,7.98
2018-01-05T00:04:42.213Z,7.98
2018-01-05T00:05:51.041Z,7.87
2018-01-05T00:06:59.871Z,7.83
2018-01-05T00:08:08.699Z,7.93
2018-01-05T00:09:17.529Z,7.89
2018-01-05T00:10:26.356Z,7.86
2018-01-05T00:11:35.185Z,7.83
2018-01-05T00:12:44.015Z,7.92
2018-01-05T00:13:53.118Z,7.92
2018-01-05T00:15:01.947Z,7.89
2018-01-05T00:16:11.102Z,7.89
2018-01-05T00:17:19.927Z,7.82
2018-01-05T00:18:28.757Z,7.86
2018-01-05T00:19:37.589Z,7.75
2018-01-05T00:20:46.417Z,7.85
2018-01-05T00:21:55.546Z,7.71
2018-01-05T00:23:04.658Z,7.71
2018-01-05T00:24:13.486Z,7.63
2018-01-05T00:25:22.316Z,7.67
2018-01-05T00:26:31.142Z,7.64
2018-01-05T00:27:40.273Z,7.61
2018-01-05T00:28:49.376Z,7.74
2018-01-05T00:29:58.201Z,7.74
2018-01-05T00:31:07.032Z,7.61
2018-01-05T00:32:15.861Z,7.58
2018-01-05T00:33:24.689Z,7.58
2018-01-05T00:34:33.516Z,7.58
2018-01-05T00:35:42.344Z,7.49
2018-01-05T00:36:51.176Z,7.58
2018-01-05T00:38:00.016Z,7.49
2018-01-05T00:39:09.124Z,7.5
2018-01-05T00:40:17.953Z,7.46
2018-01-05T00:41:26.782Z,7.45
2018-01-05T00:42:35.884Z,7.43
2018-01-05T00:43:44.713Z,7.53
2018-01-05T00:44:53.598Z,7.48
2018-01-05T00:46:02.422Z,7.46
2018-01-05T00:47:11.249Z,7.42
2018-01-05T00:48:20.078Z,7.35
2018-01-05T00:49:28.909Z,7.52
2018-01-05T00:50:37.840Z,7.57
2018-01-05T00:51:46.669Z,7.45
2018-01-05T00:52:55.772Z,7.42
2018-01-05T00:54:04.600Z,7.43
2018-01-05T00:55:13.431Z,7.46
2018-01-05T00:56:22.409Z,7.48
2018-01-05T00:57:31.235Z,7.55
2018-01-05T00:58:40.065Z,7.43
2018-01-05T00:59:48.893Z,7.45
2018-01-05T01:00:57.719Z,7.4
2018-01-05T01:02:06.550Z,7.4
2018-01-05T01:03:15.376Z,7.45
2018-01-05T01:04:24.204Z,7.49
2018-01-05T01:05:33.308Z,7.49
2018-01-05T01:06:42.139Z,7.34
2018-01-05T01:07:51.267Z,7.43
2018-01-05T01:09:00.370Z,7.34
2018-01-05T01:10:09.199Z,7.32
2018-01-05T01:11:18.026Z,7.32
2018-01-05T01:12:26.859Z,7.45
2018-01-05T01:13:35.959Z,7.4
2018-01-05T01:14:44.791Z,7.35
2018-01-05T01:15:53.620Z,7.42
2018-01-05T01:17:02.447Z,7.34
2018-01-05T01:18:11.274Z,7.34
2018-01-05T01:19:20.155Z,7.34
2018-01-05T01:20:28.984Z,7.48
2018-01-05T01:21:37.816Z,7.49
2018-01-05T01:22:46.642Z,7.49
2018-01-05T01:23:55.469Z,7.34
2018-01-05T01:25:04.447Z,7.49
2018-01-05T01:26:13.277Z,7.48
2018-01-05T01:27:22.107Z,7.48
2018-01-05T01:28:30.939Z,7.52
2018-01-05T01:29:39.764Z,7.43
2018-01-05T01:30:48.592Z,7.4
2018-01-05T01:31:57.427Z,7.49
2018-01-05T01:33:06.256Z,7.5
2018-01-05T01:34:15.091Z,7.52
2018-01-05T01:35:24.188Z,7.57
2018-01-05T01:36:33.289Z,7.57
2018-01-05T01:37:42.119Z,7.48
2018-01-05T01:38:50.949Z,7.6
2018-01-05T01:39:59.777Z,7.46
2018-01-05T01:41:08.607Z,7.48
2018-01-05T01:42:17.639Z,7.43
2018-01-05T01:43:26.466Z,7.46
2018-01-05T01:44:35.294Z,7.5
2018-01-05T01:45:44.125Z,7.45
2018-01-05T01:46:52.950Z,7.43
2018-01-05T01:48:01.933Z,7.46
2018-01-05T01:49:10.760Z,7.42
2018-01-05T01:50:19.602Z,7.32
2018-01-05T01:51:28.702Z,7.39
2018-01-05T01:52:37.532Z,7.37
2018-01-05T01:53:46.658Z,7.31
2018-01-05T01:54:55.487Z,7.32
2018-01-05T01:56:04.312Z,7.3
2018-01-05T01:57:13.412Z,7.4
2018-01-05T01:58:22.241Z,7.37
2018-01-05T01:59:31.072Z,7.31
2018-01-05T02:00:39.897Z,7.37
2018-01-05T02:01:48.727Z,7.3
2018-01-05T02:02:57.558Z,7.37
2018-01-05T02:04:06.389Z,7.3
2018-01-05T02:05:15.268Z,7.32
2018-01-05T02:06:24.097Z,7.34
2018-01-05T02:07:32.927Z,7.34
2018-01-05T02:08:41.764Z,7.31
2018-01-05T02:09:50.586Z,7.31
2018-01-05T02:10:59.571Z,7.32
2018-01-05T02:12:08.671Z,7.34
2018-01-05T02:13:17.499Z,7.3
2018-01-05T02:14:26.606Z,7.31
2018-01-05T02:15:35.438Z,7.32
2018-01-05T02:16:44.417Z,7.28
2018-01-05T02:17:53.246Z,7.31
2018-01-05T02:19:02.072Z,7.32
2018-01-05T02:20:10.898Z,7.28
2018-01-05T02:21:19.729Z,7.34
2018-01-05T02:22:28.704Z,7.37
2018-01-05T02:23:37.533Z,7.31
2018-01-05T02:24:46.365Z,7.31
2018-01-05T02:25:55.471Z,7.28
2018-01-05T02:27:04.303Z,7.34
2018-01-05T02:28:13.181Z,7.45
2018-01-05T02:29:22.008Z,7.3
2018-01-05T02:30:30.838Z,7.3
2018-01-05T02:31:39.664Z,7.3
2018-01-05T02:32:48.502Z,7.34
2018-01-05T02:33:57.320Z,7.23
2018-01-05T02:35:06.150Z,7.34
2018-01-05T02:36:14.978Z,7.3
2018-01-05T02:37:24.093Z,7.31
2018-01-05T02:38:32.925Z,7.31
2018-01-05T02:39:41.857Z,7.34
2018-01-05T02:40:50.685Z,7.4
2018-01-05T02:41:59.515Z,7.27
2018-01-05T02:43:08.346Z,7.32
2018-01-05T02:44:17.174Z,7.34
2018-01-05T02:45:26.387Z,7.3
2018-01-05T02:46:35.218Z,7.27
2018-01-05T02:47:44.335Z,7.32
2018-01-05T02:48:53.162Z,7.46
2018-01-05T02:50:01.992Z,7.4
2018-01-05T02:51:11.128Z,7.48
2018-01-05T02:52:20.222Z,7.5
2018-01-05T02:53:29.051Z,7.48
2018-01-05T02:54:37.879Z,7.31
2018-01-05T02:55:46.705Z,7.48
2018-01-05T02:56:55.689Z,7.39
2018-01-05T02:58:04.521Z,7.48
2018-01-05T02:59:13.352Z,7.43
2018-01-05T03:00:22.785Z,7.49
2018-01-05T03:01:31.617Z,7.45
2018-01-05T03:02:40.493Z,7.46
2018-01-05T03:03:49.598Z,7.45
2018-01-05T03:04:58.426Z,7.46
2018-01-05T03:06:07.256Z,7.43
2018-01-05T03:07:16.081Z,7.34
2018-01-05T03:08:25.334Z,7.49
2018-01-05T03:09:34.165Z,7.43
2018-01-05T03:10:42.995Z,7.52
2018-01-05T03:11:51.829Z,7.53
2018-01-05T03:13:00.656Z,7.53
2018-01-05T03:14:09.485Z,7.49
2018-01-05T03:15:18.315Z,7.48
2018-01-05T03:16:27.147Z,7.43
2018-01-05T03:17:35.980Z,7.53
2018-01-05T03:18:44.809Z,7.5
2018-01-05T03:19:53.689Z,7.53
2018-01-05T03:21:02.796Z,7.55
2018-01-05T03:22:11.623Z,7.48
2018-01-05T03:23:20.451Z,7.48
2018-01-05T03:24:29.277Z,7.49
2018-01-05T03:25:38.156Z,7.48
2018-01-05T03:26:47.260Z,7.46
2018-01-05T03:27:56.087Z,7.52
2018-01-05T03:29:04.927Z,7.48
2018-01-05T03:30:13.748Z,7.49
2018-01-05T03:31:22.630Z,7.43
2018-01-05T03:32:31.462Z,7.53
2018-01-05T03:33:40.289Z,7.57
2018-01-05T03:34:49.116Z,7.55
2018-01-05T03:35:57.944Z,7.5
2018-01-05T03:37:06.973Z,7.53
2018-01-05T03:38:15.802Z,7.55
2018-01-05T03:39:24.632Z,7.58
2018-01-05T03:40:33.463Z,7.5
2018-01-05T03:41:42.291Z,7.55
2018-01-05T03:42:51.170Z,7.53
2018-01-05T03:43:59.998Z,7.57
2018-01-05T03:45:08.826Z,7.55
2018-01-05T03:46:17.654Z,7.6
2018-01-05T03:47:26.484Z,7.53
2018-01-05T03:48:35.314Z,7.52
2018-01-05T03:49:44.143Z,7.58
2018-01-05T03:50:52.969Z,7.61
2018-01-05T03:52:01.800Z,7.67
2018-01-05T03:53:10.630Z,7.63
2018-01-05T03:54:19.460Z,7.58
2018-01-05T03:55:28.287Z,7.57
2018-01-05T03:56:37.393Z,7.61
2018-01-05T03:57:46.223Z,7.64
2018-01-05T03:58:55.056Z,7.63
2018-01-05T04:00:04.028Z,7.63
2018-01-05T04:01:12.865Z,7.61
2018-01-05T04:02:21.693Z,7.61
2018-01-05T04:03:30.521Z,7.68
2018-01-05T04:04:39.351Z,7.67
2018-01-05T04:05:48.179Z,7.63
2018-01-05T04:06:57.010Z,7.67
2018-01-05T04:08:05.842Z,7.68
2018-01-05T04:09:14.670Z,7.69
2018-01-05T04:10:23.773Z,7.67
2018-01-05T04:11:32.653Z,7.67
2018-01-05T04:12:41.758Z,7.64
2018-01-05T04:13:50.588Z,7.67
2018-01-05T04:14:59.416Z,7.64
2018-01-05T04:16:08.247Z,7.67
2018-01-05T04:17:17.225Z,7.67
2018-01-05T04:18:26.104Z,7.64
2018-01-05T04:19:34.884Z,7.69
2018-01-05T04:20:43.986Z,7.67
2018-01-05T04:21:52.812Z,7.68
2018-01-05T04:23:01.690Z,7.64
2018-01-05T04:24:10.521Z,7.69
2018-01-05T04:25:19.349Z,7.75
2018-01-05T04:26:28.465Z,7.67
2018-01-05T04:27:37.294Z,7.75
2018-01-05T04:28:46.424Z,7.74
2018-01-05T04:29:55.252Z,7.63
2018-01-05T04:31:04.080Z,7.71
2018-01-05T04:32:12.908Z,7.71
2018-01-05T04:33:22.015Z,7.68
2018-01-05T04:34:30.943Z,7.69
2018-01-05T04:35:39.771Z,7.68
2018-01-05T04:36:48.600Z,7.67
2018-01-05T04:37:57.430Z,7.69
2018-01-05T04:39:06.258Z,7.63
2018-01-05T04:40:15.291Z,7.64
2018-01-05T04:41:24.119Z,7.68
2018-01-05T04:42:32.949Z,7.63
2018-01-05T04:43:41.778Z,7.63
2018-01-05T04:44:50.890Z,7.63
2018-01-05T04:45:59.720Z,7.8
2018-01-05T04:47:08.821Z,7.79
2018-01-05T04:48:17.660Z,7.68
2018-01-05T04:49:26.755Z,7.63
2018-01-05T04:50:35.586Z,7.74
2018-01-05T04:51:44.464Z,7.68
2018-01-05T04:52:53.290Z,7.61
2018-01-05T04:54:02.119Z,7.67
2018-01-05T04:55:10.951Z,7.64
2018-01-05T04:56:19.786Z,7.6
2018-01-05T04:57:28.709Z,7.63
2018-01-05T04:58:37.538Z,7.63
2018-01-05T04:59:46.365Z,7.63
2018-01-05T05:00:55.204Z,7.63
2018-01-05T05:02:04.025Z,7.61
2018-01-05T05:03:12.953Z,7.68
2018-01-05T05:04:21.783Z,7.64
2018-01-05T05:05:30.610Z,7.74
2018-01-05T05:06:39.440Z,7.67
2018-01-05T05:07:48.271Z,7.67
2018-01-05T05:08:57.252Z,7.67
2018-01-05T05:10:06.081Z,7.58
2018-01-05T05:11:15.184Z,7.6
2018-01-05T05:12:24.013Z,7.63
2018-01-05T05:13:32.845Z,7.6
2018-01-05T05:14:41.673Z,7.6
2018-01-05T05:15:50.780Z,7.63
2018-01-05T05:16:59.607Z,7.67
2018-01-05T05:18:08.439Z,7.74
2018-01-05T05:19:17.270Z,7.72
2018-01-05T05:20:26.497Z,7.67
2018-01-05T05:21:35.338Z,7.64
2018-01-05T05:22:44.164Z,7.68
2018-01-05T05:23:52.993Z,7.69
2018-01-05T05:25:01.823Z,7.67
2018-01-05T05:26:10.653Z,7.64
2018-01-05T05:27:19.755Z,7.64
2018-01-05T05:28:28.870Z,7.6
2018-01-05T05:29:37.699Z,7.61
2018-01-05T05:30:46.526Z,7.68
2018-01-05T05:31:55.629Z,7.64
2018-01-05T05:33:04.463Z,7.64
2018-01-05T05:34:13.295Z,7.68
2018-01-05T05:35:22.472Z,7.68
2018-01-05T05:36:31.576Z,7.74
2018-01-05T05:37:40.454Z,7.68
2018-01-05T05:38:49.557Z,7.63
2018-01-05T05:39:58.387Z,7.6
2018-01-05T05:41:07.236Z,7.63
2018-01-05T05:42:16.048Z,7.6
2018-01-05T05:43:25.204Z,7.68
2018-01-05T05:44:34.029Z,7.63
2018-01-05T05:45:42.855Z,7.64
2018-01-05T05:46:51.685Z,7.67
2018-01-05T05:48:00.793Z,7.6
2018-01-05T05:49:10.274Z,7.61
2018-01-05T05:50:19.102Z,7.64
2018-01-05T05:51:27.935Z,7.6
2018-01-05T05:52:36.766Z,7.57
2018-01-05T05:53:45.595Z,7.63
2018-01-05T05:54:54.424Z,7.64
2018-01-05T05:56:03.255Z,7.63
2018-01-05T05:57:12.085Z,7.67
2018-01-05T05:58:20.913Z,7.6
2018-01-05T05:59:29.742Z,7.58
2018-01-05T06:00:38.723Z,7.69
2018-01-05T06:01:47.554Z,7.67
2018-01-05T06:02:56.385Z,7.58
2018-01-05T06:04:05.215Z,7.61
2018-01-05T06:05:14.043Z,7.55
2018-01-05T06:06:23.023Z,7.58
2018-01-05T06:07:31.854Z,7.55
2018-01-05T06:08:40.682Z,7.58
2018-01-05T06:09:49.512Z,7.58
2018-01-05T06:10:58.347Z,7.55
2018-01-05T06:12:07.321Z,7.53
2018-01-05T06:13:16.150Z,7.57
2018-01-05T06:14:24.980Z,7.57
2018-01-05T06:15:33.810Z,7.48
2018-01-05T06:16:42.640Z,7.57
2018-01-05T06:17:51.518Z,7.58
2018-01-05T06:19:00.347Z,7.5
2018-01-05T06:20:09.178Z,7.53
2018-01-05T06:21:18.011Z,7.5
2018-01-05T06:22:26.841Z,7.49
2018-01-05T06:23:35.919Z,7.45
2018-01-05T06:24:44.749Z,7.5
2018-01-05T06:25:53.606Z,7.48
2018-01-05T06:27:02.407Z,7.45
2018-01-05T06:28:11.237Z,7.31
2018-01-05T06:29:20.171Z,7.28
2018-01-05T06:30:29.003Z,7.32
2018-01-05T06:31:37.834Z,7.32
2018-01-05T06:32:46.663Z,7.27
2018-01-05T06:33:55.491Z,7.31
2018-01-05T06:35:04.650Z,7.34
2018-01-05T06:36:13.480Z,7.3
2018-01-05T06:37:22.314Z,7.34
2018-01-05T06:38:31.141Z,7.3
2018-01-05T06:39:39.970Z,7.21
2018-01-05T06:40:49.102Z,7.23
2018-01-05T06:41:57.929Z,7.27
2018-01-05T06:43:06.763Z,7.23
2018-01-05T06:44:15.593Z,7.2
2018-01-05T06:45:24.420Z,7.12
2018-01-05T06:46:33.248Z,7.23
2018-01-05T06:47:42.077Z,7.21
2018-01-05T06:48:50.903Z,7.16
2018-01-05T06:49:59.736Z,7.16
2018-01-05T06:51:08.565Z,7.09
2018-01-05T06:52:17.545Z,7.1
2018-01-05T06:53:26.373Z,7.06
2018-01-05T06:54:35.208Z,7.05
2018-01-05T06:55:44.313Z,7.02
2018-01-05T06:56:53.144Z,7.12
2018-01-05T06:58:02.359Z,6.98
2018-01-05T06:59:11.462Z,6.99
2018-01-05T07:00:20.290Z,6.99
2018-01-05T07:01:29.121Z,6.88
2018-01-05T07:02:37.953Z,6.88
2018-01-05T07:03:46.934Z,6.85
2018-01-05T07:04:55.762Z,6.89
2018-01-05T07:06:04.873Z,6.87
2018-01-05T07:07:13.701Z,6.85
2018-01-05T07:08:22.533Z,6.89
2018-01-05T07:09:31.664Z,6.92
2018-01-05T07:10:40.492Z,6.81
2018-01-05T07:11:49.328Z,6.84
2018-01-05T07:12:58.156Z,6.88
2018-01-05T07:14:06.988Z,6.76
2018-01-05T07:15:15.869Z,6.74
2018-01-05T07:16:24.701Z,6.77
2018-01-05T07:17:33.531Z,6.67
2018-01-05T07:18:42.916Z,6.7
2018-01-05T07:19:51.747Z,6.64
2018-01-05T07:21:01.000Z,6.64
2018-01-05T07:22:09.827Z,6.76
2018-01-05T07:23:18.929Z,6.71
2018-01-05T07:24:28.035Z,6.69
2018-01-05T07:25:36.864Z,6.73
2018-01-05T07:26:45.849Z,6.71
2018-01-05T07:27:54.732Z,6.69
2018-01-05T07:29:03.557Z,6.71
2018-01-05T07:30:12.387Z,6.66
2018-01-05T07:31:21.218Z,6.62
2018-01-05T07:32:30.372Z,6.58
2018-01-05T07:33:39.198Z,6.67
2018-01-05T07:34:48.027Z,6.73
2018-01-05T07:35:56.864Z,6.62
2018-01-05T07:37:05.972Z,6.61
2018-01-05T07:38:14.855Z,6.66
2018-01-05T07:39:23.696Z,6.64
2018-01-05T07:40:32.523Z,6.54
2018-01-05T07:41:41.353Z,6.51
2018-01-05T07:42:50.189Z,6.46
2018-01-05T07:43:59.290Z,6.51
2018-01-05T07:45:08.124Z,6.51
2018-01-05T07:46:16.951Z,6.46
2018-01-05T07:47:26.070Z,6.37
2018-01-05T07:48:34.901Z,6.37
2018-01-05T07:49:43.731Z,6.44
2018-01-05T07:50:52.561Z,6.41
2018-01-05T07:52:01.389Z,6.31
2018-01-05T07:53:10.222Z,6.34
2018-01-05T07:54:19.051Z,6.37
2018-01-05T07:55:28.280Z,6.43
2018-01-05T07:56:37.106Z,6.36
2018-01-05T07:57:45.942Z,6.37
2018-01-05T07:58:54.766Z,6.43
2018-01-05T08:00:03.595Z,6.44
2018-01-05T08:01:12.476Z,6.38
2018-01-05T08:02:21.306Z,6.41
2018-01-05T08:03:30.686Z,6.37
2018-01-05T08:04:39.792Z,6.4
2018-01-05T08:05:48.622Z,6.41
2018-01-05T08:06:57.604Z,6.4
2018-01-05T08:08:06.433Z,6.36
2018-01-05T08:09:15.262Z,6.38
2018-01-05T08:10:24.093Z,6.36
2018-01-05T08:11:33.196Z,6.46
2018-01-05T08:12:42.352Z,6.44
2018-01-05T08:13:51.184Z,6.49
2018-01-05T08:15:00.566Z,6.46
2018-01-05T08:16:09.398Z,6.49
2018-01-05T08:17:18.233Z,6.62
2018-01-05T08:18:27.662Z,6.49
2018-01-05T08:19:36.494Z,6.52
2018-01-05T08:20:45.325Z,6.51
2018-01-05T08:21:54.159Z,6.59
2018-01-05T08:23:02.991Z,6.58
2018-01-05T08:24:12.121Z,6.62
2018-01-05T08:25:20.950Z,6.66
2018-01-05T08:26:29.783Z,6.7
2018-01-05T08:27:38.886Z,6.7
2018-01-05T08:28:47.716Z,6.7
2018-01-05T08:29:56.795Z,6.71
2018-01-05T08:31:05.624Z,6.61
2018-01-05T08:32:14.455Z,6.84
2018-01-05T08:33:23.285Z,6.79
2018-01-05T08:34:32.112Z,6.79
2018-01-05T08:35:41.194Z,6.79
2018-01-05T08:36:50.021Z,6.79
2018-01-05T08:37:58.849Z,6.79
2018-01-05T08:39:07.765Z,6.8
2018-01-05T08:40:16.635Z,6.79
2018-01-05T08:41:25.564Z,6.81
2018-01-05T08:42:34.394Z,6.85
2018-01-05T08:43:43.507Z,6.89
2018-01-05T08:44:52.613Z,6.84
2018-01-05T08:46:01.443Z,6.88
2018-01-05T08:47:10.272Z,6.92
2018-01-05T08:48:19.102Z,6.89
2018-01-05T08:49:27.930Z,6.91
2018-01-05T08:50:36.759Z,6.91
2018-01-05T08:51:45.599Z,6.95
2018-01-05T08:52:54.843Z,6.97
2018-01-05T08:54:03.673Z,6.91
2018-01-05T08:55:12.503Z,6.92
2018-01-05T08:56:21.332Z,6.91
2018-01-05T08:57:30.159Z,6.89
2018-01-05T08:58:38.989Z,6.89
2018-01-05T08:59:47.821Z,6.98
2018-01-05T09:00:56.651Z,6.99
2018-01-05T09:02:05.486Z,6.98
2018-01-05T09:03:14.588Z,7.03
2018-01-05T09:04:23.718Z,6.98
2018-01-05T09:05:32.553Z,6.99
2018-01-05T09:06:41.381Z,7.02
2018-01-05T09:07:50.491Z,7.02
2018-01-05T09:08:59.323Z,7.09
2018-01-05T09:10:08.342Z,7.05
2018-01-05T09:11:17.136Z,7.02
2018-01-05T09:12:25.969Z,7.05
2018-01-05T09:13:34.798Z,7.05
2018-01-05T09:14:43.629Z,7.07
2018-01-05T09:15:52.795Z,7.15
2018-01-05T09:17:01.636Z,7.12
2018-01-05T09:18:10.773Z,7.05
2018-01-05T09:19:19.607Z,7.05
2018-01-05T09:20:28.439Z,7.09
2018-01-05T09:21:37.974Z,6.99
2018-01-05T09:22:47.082Z,7.05
2018-01-05T09:23:55.912Z,6.99
2018-01-05T09:25:04.742Z,7.05
2018-01-05T09:26:13.572Z,7.02
2018-01-05T09:27:22.831Z,7.07
2018-01-05T09:28:31.660Z,7.02
2018-01-05T09:29:40.767Z,7.06
2018-01-05T09:30:49.596Z,6.99
2018-01-05T09:31:58.428Z,7.06
2018-01-05T09:33:07.306Z,6.99
2018-01-05T09:34:16.139Z,7.02
2018-01-05T09:35:25.243Z,6.98
2018-01-05T09:36:34.075Z,6.99
2018-01-05T09:37:43.008Z,7.03
2018-01-05T09:38:51.839Z,7.05
2018-01-05T09:40:00.673Z,7.05
2018-01-05T09:41:09.503Z,7.03
2018-01-05T09:42:18.332Z,6.99
2018-01-05T09:43:27.164Z,7.02
2018-01-05T09:44:36.319Z,7.05
2018-01-05T09:45:45.151Z,7.05
2018-01-05T09:46:53.983Z,7.03
2018-01-05T09:48:02.814Z,7.03
2018-01-05T09:49:11.648Z,7.03
2018-01-05T09:50:20.779Z,7.02
2018-01-05T09:51:29.615Z,7.03
2018-01-05T09:52:38.448Z,7.05
2018-01-05T09:53:47.324Z,7.06
2018-01-05T09:54:56.156Z,7.07
2018-01-05T09:56:05.007Z,7.03
2018-01-05T09:57:13.866Z,7.02
2018-01-05T09:58:23.016Z,7.05
2018-01-05T09:59:31.917Z,7.1
2018-01-05T10:00:41.215Z,7.06
2018-01-05T10:01:50.164Z,7.1
2018-01-05T10:02:59.353Z,7.2
2018-01-05T10:04:08.216Z,7.09
2018-01-05T10:05:17.077Z,7.07
2018-01-05T10:06:26.212Z,7.16
2018-01-05T10:07:35.055Z,7.13
2018-01-05T10:08:44.068Z,6.99
2018-01-05T10:09:52.938Z,7.05
2018-01-05T10:11:02.479Z,7.13
2018-01-05T10:12:11.589Z,7.02
2018-01-05T10:13:20.426Z,7.13
2018-01-05T10:14:29.256Z,7.07
2018-01-05T10:15:38.090Z,7.06
2018-01-05T10:16:46.917Z,7.12
2018-01-05T10:17:55.748Z,7.12
2018-01-05T10:19:04.856Z,7.12
2018-01-05T10:20:13.688Z,7.1
2018-01-05T10:21:22.521Z,7.1
2018-01-05T10:22:31.353Z,7.23
2018-01-05T10:23:40.187Z,7.17
2018-01-05T10:24:49.293Z,7.09
2018-01-05T10:25:58.125Z,7.2
2018-01-05T10:27:06.955Z,7.2
2018-01-05T10:28:15.785Z,7.16
2018-01-05T10:29:24.615Z,7.13
2018-01-05T10:30:33.720Z,7.21
2018-01-05T10:31:42.830Z,7.12
2018-01-05T10:32:51.665Z,7.16
2018-01-05T10:34:01.045Z,7.16
2018-01-05T10:35:09.877Z,7.21
2018-01-05T10:36:18.713Z,7.24
2018-01-05T10:37:27.543Z,7.17
2018-01-05T10:38:36.372Z,7.16
2018-01-05T10:39:45.211Z,7.25
2018-01-05T10:40:54.044Z,7.32
2018-01-05T10:42:02.972Z,7.28
2018-01-05T10:43:11.803Z,7.31
2018-01-05T10:44:20.638Z,7.2
2018-01-05T10:45:29.472Z,7.17
2018-01-05T10:46:38.304Z,7.28
2018-01-05T10:47:47.598Z,7.17
2018-01-05T10:48:56.421Z,7.28
2018-01-05T10:50:05.251Z,7.17
2018-01-05T10:51:14.081Z,7.32
2018-01-05T10:52:22.918Z,7.3
2018-01-05T10:53:31.845Z,7.27
2018-01-05T10:54:40.675Z,7.15
2018-01-05T10:55:49.506Z,7.17
2018-01-05T10:56:58.612Z,7.25
2018-01-05T10:58:07.723Z,7.21
2018-01-05T10:59:16.758Z,7.23
2018-01-05T11:00:25.589Z,7.23
2018-01-05T11:01:34.825Z,7.23
2018-01-05T11:02:43.656Z,7.21
2018-01-05T11:03:52.489Z,7.17
2018-01-05T11:05:01.646Z,7.21
2018-01-05T11:06:10.487Z,7.16
2018-01-05T11:07:19.312Z,7.17
2018-01-05T11:08:28.145Z,7.23
2018-01-05T11:09:36.976Z,7.27
2018-01-05T11:10:45.909Z,7.27
2018-01-05T11:11:54.739Z,7.3
2018-01-05T11:13:03.844Z,7.31
2018-01-05T11:14:12.674Z,7.28
2018-01-05T11:15:21.506Z,7.17
2018-01-05T11:16:30.438Z,7.21
2018-01-05T11:17:39.270Z,7.17
2018-01-05T11:18:48.102Z,7.17
2018-01-05T11:19:56.934Z,7.25
2018-01-05T11:21:06.049Z,7.16
2018-01-05T11:22:15.141Z,7.2
2018-01-05T11:23:23.983Z,7.34
2018-01-05T11:24:32.807Z,7.27
2018-01-05T11:25:41.644Z,7.31
2018-01-05T11:26:50.467Z,7.3
2018-01-05T11:27:59.352Z,7.31
2018-01-05T11:29:08.459Z,7.16
2018-01-05T11:30:17.565Z,7.2
2018-01-05T11:31:26.395Z,7.16
2018-01-05T11:32:35.226Z,7.21
2018-01-05T11:33:44.310Z,7.3
2018-01-05T11:34:53.140Z,7.25
2018-01-05T11:36:01.972Z,7.32
2018-01-05T11:37:10.803Z,7.34
2018-01-05T11:38:19.633Z,7.17
2018-01-05T11:39:28.766Z,7.17
2018-01-05T11:40:37.595Z,7.23
2018-01-05T11:41:46.425Z,7.16
2018-01-05T11:42:55.315Z,7.17
2018-01-05T11:44:04.154Z,7.37
2018-01-05T11:45:13.388Z,7.23
2018-01-05T11:46:22.218Z,7.17
2018-01-05T11:47:31.337Z,7.17
2018-01-05T11:48:40.171Z,7.17
2018-01-05T11:49:49.277Z,7.2
2018-01-05T11:50:58.360Z,7.15
2018-01-05T11:52:07.187Z,7.23
2018-01-05T11:53:16.019Z,7.17
2018-01-05T11:54:24.848Z,7.16
2018-01-05T11:55:33.678Z,7.24
2018-01-05T11:56:42.868Z,7.24
2018-01-05T11:57:51.968Z,7.21
2018-01-05T11:59:00.803Z,7.17
2018-01-05T12:00:09.631Z,7.12
2018-01-05T12:01:18.461Z,7.09
2018-01-05T12:02:27.344Z,7.17
2018-01-05T12:03:36.176Z,7.17
2018-01-05T12:04:45.010Z,7.17
2018-01-05T12:05:53.844Z,7.21
2018-01-05T12:07:02.676Z,7.12
2018-01-05T12:08:11.604Z,7.15
2018-01-05T12:09:20.434Z,7.1
2018-01-05T12:10:29.263Z,7.16
2018-01-05T12:11:38.093Z,7.1
2018-01-05T12:12:46.926Z,7.17
2018-01-05T12:13:55.854Z,7.2
2018-01-05T12:15:04.693Z,7.12
2018-01-05T12:16:13.522Z,7.17
2018-01-05T12:17:22.352Z,7.25
2018-01-05T12:18:31.183Z,7.21
2018-01-05T12:19:40.316Z,7.15
2018-01-05T12:20:49.147Z,7.15
2018-01-05T12:21:58.256Z,7.1
2018-01-05T12:23:07.094Z,7.13
2018-01-05T12:24:15.921Z,7.13
2018-01-05T12:25:24.851Z,7.12
2018-01-05T12:26:33.685Z,7.13
2018-01-05T12:27:42.801Z,7.09
2018-01-05T12:28:51.636Z,7.13
2018-01-05T12:30:00.466Z,7.02
2018-01-05T12:31:09.598Z,7.05
2018-01-05T12:32:18.432Z,7.06
2018-01-05T12:33:27.260Z,7.15
2018-01-05T12:34:36.090Z,7.02
2018-01-05T12:35:44.922Z,7.07
2018-01-05T12:36:54.003Z,7.03
2018-01-05T12:38:02.835Z,7.07
2018-01-05T12:39:11.942Z,7.03
2018-01-05T12:40:20.773Z,7.07
2018-01-05T12:41:29.603Z,7.03
2018-01-05T12:42:38.533Z,6.99
2018-01-05T12:43:47.365Z,7.09
2018-01-05T12:44:56.470Z,7.09
2018-01-05T12:46:05.304Z,7.15
2018-01-05T12:47:14.135Z,7.12
2018-01-05T12:48:23.063Z,7.13
2018-01-05T12:49:31.894Z,7.1
2018-01-05T12:50:40.726Z,7.03
2018-01-05T12:51:49.560Z,7.12
2018-01-05T12:52:58.394Z,7.03
2018-01-05T12:54:07.226Z,7.09
2018-01-05T12:55:16.333Z,7.03
2018-01-05T12:56:25.163Z,7.13
2018-01-05T12:57:34.021Z,7.07
2018-01-05T12:58:42.836Z,7.12
2018-01-05T12:59:51.669Z,6.98
2018-01-05T13:01:00.772Z,7.09
2018-01-05T13:02:09.606Z,7.07
2018-01-05T13:03:18.439Z,7.09
2018-01-05T13:04:27.269Z,7.05
2018-01-05T13:05:36.248Z,7.09
2018-01-05T13:06:45.349Z,7.06
2018-01-05T13:07:54.180Z,7.03
2018-01-05T13:09:03.016Z,6.99
2018-01-05T13:10:11.849Z,7.05
2018-01-05T13:11:20.729Z,6.99
2018-01-05T13:12:29.562Z,7.05
2018-01-05T13:13:38.665Z,7.02
2018-01-05T13:14:47.499Z,7.03
2018-01-05T13:15:56.328Z,6.99
2018-01-05T13:17:05.461Z,7.05
2018-01-05T13:18:14.293Z,7.09
2018-01-05T13:19:23.127Z,6.99
2018-01-05T13:20:31.967Z,7.06
2018-01-05T13:21:40.797Z,7.07
2018-01-05T13:22:49.677Z,7.05
2018-01-05T13:23:58.510Z,7.03
2018-01-05T13:25:07.344Z,6.97
2018-01-05T13:26:16.451Z,7.02
2018-01-05T13:27:25.561Z,7.02
2018-01-05T13:28:34.543Z,7.06
2018-01-05T13:29:43.649Z,7.02
2018-01-05T13:30:52.481Z,6.97
2018-01-05T13:32:01.312Z,6.91
2018-01-05T13:33:10.145Z,7.03
2018-01-05T13:34:19.278Z,6.94
2018-01-05T13:35:28.378Z,6.91
2018-01-05T13:36:37.209Z,6.89
2018-01-05T13:37:46.048Z,6.98
2018-01-05T13:38:54.876Z,7.02
2018-01-05T13:40:04.286Z,6.99
2018-01-05T13:41:13.117Z,6.95
2018-01-05T13:42:21.950Z,6.88
2018-01-05T13:43:30.783Z,6.95
2018-01-05T13:44:39.892Z,6.99
2018-01-05T13:45:48.720Z,6.91
2018-01-05T13:46:57.553Z,6.98
2018-01-05T13:48:06.385Z,6.94
2018-01-05T13:49:15.215Z,6.88
2018-01-05T13:50:24.045Z,6.91
2018-01-05T13:51:33.402Z,6.92
2018-01-05T13:52:42.236Z,6.89
2018-01-05T13:53:51.068Z,6.92
2018-01-05T13:54:59.906Z,6.89
2018-01-05T13:56:08.780Z,6.88
2018-01-05T13:57:17.616Z,6.91
2018-01-05T13:58:26.448Z,6.88
2018-01-05T13:59:35.278Z,6.99
2018-01-05T14:00:44.109Z,6.91
2018-01-05T14:01:52.939Z,6.94
2018-01-05T14:03:02.068Z,6.91
2018-01-05T14:04:10.898Z,6.97
2018-01-05T14:05:19.729Z,6.91
2018-01-05T14:06:28.561Z,6.92
2018-01-05T14:07:37.395Z,6.98
2018-01-05T14:08:46.580Z,6.95
2018-01-05T14:09:55.412Z,6.92
2018-01-05T14:11:04.241Z,6.89
2018-01-05T14:12:13.071Z,7.07
2018-01-05T14:13:21.902Z,6.97
2018-01-05T14:14:30.733Z,6.94
2018-01-05T14:15:39.566Z,6.89
2018-01-05T14:16:48.398Z,6.8
2018-01-05T14:17:57.230Z,6.89
2018-01-05T14:19:06.062Z,6.89
2018-01-05T14:20:14.890Z,6.84
2018-01-05T14:21:23.999Z,6.87
2018-01-05T14:22:32.828Z,6.87
2018-01-05T14:23:41.931Z,6.89
2018-01-05T14:24:50.761Z,6.88
2018-01-05T14:25:59.743Z,6.87
2018-01-05T14:27:08.576Z,6.91
2018-01-05T14:28:17.406Z,6.84
2018-01-05T14:29:26.510Z,6.85
2018-01-05T14:30:35.338Z,6.81
2018-01-05T14:31:44.319Z,6.87
2018-01-05T14:32:53.148Z,6.94
2018-01-05T14:34:01.985Z,6.84
2018-01-05T14:35:10.815Z,6.89
2018-01-05T14:36:19.642Z,6.87
2018-01-05T14:37:28.472Z,6.8
2018-01-05T14:38:37.302Z,6.84
2018-01-05T14:39:46.134Z,6.85
2018-01-05T14:40:55.238Z,6.85
2018-01-05T14:42:04.067Z,6.77
2018-01-05T14:43:13.198Z,6.77
2018-01-05T14:44:22.029Z,6.77
2018-01-05T14:45:30.861Z,6.87
2018-01-05T14:46:39.692Z,6.84
2018-01-05T14:47:48.522Z,6.79
2018-01-05T14:48:57.453Z,6.73
2018-01-05T14:50:06.285Z,6.76
2018-01-05T14:51:15.116Z,6.76
2018-01-05T14:52:23.947Z,6.79
2018-01-05T14:53:32.777Z,6.76
2018-01-05T14:54:41.655Z,6.87
2018-01-05T14:55:50.763Z,6.77
2018-01-05T14:56:59.866Z,6.74
2018-01-05T14:58:08.699Z,6.79
2018-01-05T14:59:17.532Z,6.76
2018-01-05T15:00:26.788Z,6.85
2018-01-05T15:01:35.621Z,6.79
2018-01-05T15:02:44.726Z,6.77
2018-01-05T15:03:53.557Z,6.79
2018-01-05T15:05:02.389Z,6.64
2018-01-05T15:06:11.268Z,6.67
2018-01-05T15:07:20.098Z,6.69
2018-01-05T15:08:28.933Z,6.64
2018-01-05T15:09:38.037Z,6.64
2018-01-05T15:10:46.870Z,6.67
2018-01-05T15:11:55.752Z,6.62
2018-01-05T15:13:04.586Z,6.62
2018-01-05T15:14:13.700Z,6.69
2018-01-05T15:15:22.800Z,6.64
2018-01-05T15:16:31.631Z,6.62
2018-01-05T15:17:40.562Z,6.56
2018-01-05T15:18:49.393Z,6.52